CheckWX is a tool to help pilots better visualize weather data.  It is not intended as a substitute for an official pre-flight weather briefing.

07:37:38 UTC

CYAY TAF
Saint Anthony Airport
St. Anthony, Canada
TAF AMD CYAY 190510Z 1905/1914 VRB03KT 1/2SM -RA -DZ FG OVC003 TEMPO 1905/1909 11/2SM BR OVC004 FM190900 27006KT 1/2SM -DZ -RA FG OVC003 TEMPO 1909/1912 6SM BR OVC005 FM191200 28008KT 6SM BR OVC005 RMK FCST BASED ON AUTO OBS. NXT FCST BY 190800Z

Jun-19@
05:00 UTC

Jun-19 @ 05:00 UTC

Jun-19@
09:00 UTC

Jun-19 @ 09:00 UTC

TAF AMD CYAY 190510Z 1905/1914 VRB03KT 1/2SM -RA -DZ FG OVC003
Wind
  • Variable at 3 KTS
Conditions
Light Rain, Light Drizzle, Fog
Cloud Levels
  • Overcast at 300' AGL

Jun-19@
05:00 UTC

Jun-19 @ 05:00 UTC

Jun-19@
09:00 UTC

Jun-19 @ 09:00 UTC

TEMPO 1905/1909 11/2SM BR OVC004

Temporary

Temporary Changes expected for less than half the time period

Conditions
Mist
Cloud Levels
  • Overcast at 400' AGL

Jun-19@
09:00 UTC

Jun-19 @ 09:00 UTC

Jun-19@
12:00 UTC

Jun-19 @ 12:00 UTC

TEMPO 1909/1912 6SM BR OVC005

Temporary

Temporary Changes expected for less than half the time period

Conditions
Mist
Cloud Levels
  • Overcast at 500' AGL

Jun-19@
09:00 UTC

Jun-19 @ 09:00 UTC

Jun-19@
12:00 UTC

Jun-19 @ 12:00 UTC

FM190900 27006KT 1/2SM -DZ -RA FG OVC003

From

From Standard forecast or significant change

Wind
  • 270° at 6 KTS
Conditions
Light Drizzle, Light Rain, Fog
Cloud Levels
  • Overcast at 300' AGL

Jun-19@
12:00 UTC

Jun-19 @ 12:00 UTC

Jun-19@
14:00 UTC

Jun-19 @ 14:00 UTC

FM191200 28008KT 6SM BR OVC005 RMK FCST BASED ON AUTO OBS. NXT FCST BY 190800Z

From

From Standard forecast or significant change

Wind
  • 280° at 8 KTS
Conditions
Mist
Cloud Levels
  • Overcast at 500' AGL